Aeroporto :
LOGIN :

Iscrizione | Disclaimer

   EN    FR    IT 

 










Sommario :    VFR   VFR Marginale   IFR   IFR Intensivo   IFR Molto Intensivo
Visibilità : 
Base nubi : 
>= 8 km
>= 3000ft
5 / 8 km
1000 / 3000 ft
1500m / 5 km
500 / 1000 ft
800 / 1500m
200 / 500 ft
< 800m
< 200 ft
Simboli :   Temporali  Nebbia  Neve Forte  Precipitazioni Forti  Vento > 20 kt
SIGMETs :   Varie  Temporali  Ghiacco  Turbolenza  Onda orograficha  Ceneri Vulcaniche






- Altitudine del aeroporto : 26 ft
- Codice IATA : SYY


EGPO - Stornoway

ULTIMO METAR :
  • 062050Z AUTO 27006KT 9999 FEW029/// 04/03 Q0998

METARs OBSOLETI :
  • 062020Z AUTO 26005KT 9999 BKN031/// 04/03 Q0998
  • 061950Z AUTO 28006KT 3700 -RA FEW005/// SCT020/// BKN036/// 04/04 Q0998
  • 061920Z 24005KT 9999 VCSH FEW012CB FEW030 03/03 Q0998
  • 061850Z 26005KT 9999 VCSH FEW012CB SCT024 04/03 Q0997
  • 061820Z 29006KT 9999 SHRA FEW009 SCT012CB BKN025 05/04 Q0997

TAF TAF EGPO
Valido dal 06 a 21 ore il 07 a 06 ore UTC


061957Z 0621/0706 30009KT 9999 FEW012 SCT018
PROB40
TEMPO 0621/0706 4500 SHRA BKN009
ATIS : +44 1851 707 444



MetMap, La meteo Aeronautica in un colpo d'occhio ! - Copyright ORBIFLY Dicembre 2007 - Disclaimer

ORBIFLY MET'MAP TEAM :

Programmazione e sviluppo : Alexandra Zaïnal
Concezione : Baudouin d'Aumeries
Aiuto per la programmazione : Marc-Olivier Méhu
Supporto tecnico e logistico : Manuel Goepfert
Aiuto per la traduzione : Arnaldo La Scala

Contatto : metmap@orbifly.com




FONTI E CREDITI :

   NOAA